createdAt,value
2019-04-07T00:01:06.083Z,94493.25
2019-04-07T00:03:32.323Z,94497.25
2019-04-07T00:05:58.571Z,94503.53
2019-04-07T00:08:24.145Z,94501.80
2019-04-07T00:10:50.569Z,94509.25
2019-04-07T00:13:16.178Z,94510.30
2019-04-07T00:15:43.252Z,94495.34
2019-04-07T00:18:08.194Z,94496.68
2019-04-07T00:20:34.186Z,94501.09
2019-04-07T00:23:00.201Z,94499.85
2019-04-07T00:25:26.226Z,94493.19
2019-04-07T00:27:52.263Z,94490.11
2019-04-07T00:30:18.258Z,94493.70
2019-04-07T00:32:44.304Z,94490.23
2019-04-07T00:35:22.191Z,94496.99
2019-04-07T00:37:36.365Z,94497.82
2019-04-07T00:40:02.351Z,94488.58
2019-04-07T00:42:28.939Z,94485.53
2019-04-07T00:44:54.380Z,94484.71
2019-04-07T00:47:20.852Z,94484.30
2019-04-07T00:49:46.563Z,94478.97
2019-04-07T00:52:12.871Z,94475.48
2019-04-07T00:54:38.422Z,94478.68
2019-04-07T00:57:04.474Z,94478.27
2019-04-07T00:59:30.857Z,94468.52
2019-04-07T01:01:56.762Z,94473.44
2019-04-07T01:04:22.450Z,94476.11
2019-04-07T01:06:48.490Z,94474.90
2019-04-07T01:09:14.539Z,94472.23
2019-04-07T01:11:40.529Z,94472.23
2019-04-07T01:14:07.009Z,94466.08
2019-04-07T01:16:32.764Z,94463.92
2019-04-07T01:18:59.150Z,94463.54
2019-04-07T01:21:24.962Z,94465.25
2019-04-07T01:23:51.064Z,94463.54
2019-04-07T01:26:16.625Z,94459.13
2019-04-07T01:28:42.968Z,94457.80
2019-04-07T01:31:08.786Z,94454.21
2019-04-07T01:33:34.686Z,94450.81
2019-04-07T01:36:00.822Z,94449.61
2019-04-07T01:38:26.780Z,94441.48
2019-04-07T01:40:52.689Z,94442.02
2019-04-07T01:43:18.702Z,94442.53
2019-04-07T01:45:44.808Z,94433.70
2019-04-07T01:48:11.397Z,94432.00
2019-04-07T01:50:37.307Z,94435.17
2019-04-07T01:53:03.406Z,94435.17
2019-04-07T01:55:28.830Z,94429.42
2019-04-07T01:57:55.289Z,94432.22
2019-04-07T02:00:21.531Z,94429.93
2019-04-07T02:02:46.868Z,94429.93
2019-04-07T02:05:13.404Z,94425.02
2019-04-07T02:07:39.110Z,94425.94
2019-04-07T02:10:05.427Z,94423.81
2019-04-07T02:12:31.358Z,94424.31
2019-04-07T02:14:57.439Z,94419.91
2019-04-07T02:17:22.945Z,94421.23
2019-04-07T02:19:49.104Z,94418.16
2019-04-07T02:22:14.956Z,94419.91
2019-04-07T02:24:41.086Z,94422.70
2019-04-07T02:27:07.607Z,94419.08
2019-04-07T02:29:33.460Z,94411.63
2019-04-07T02:31:59.016Z,94422.16
2019-04-07T02:34:25.728Z,94421.74
2019-04-07T02:36:51.119Z,94420.03
2019-04-07T02:39:17.399Z,94422.70
2019-04-07T02:41:43.333Z,94428.95
2019-04-07T02:44:09.385Z,94424.53
2019-04-07T02:46:35.218Z,94427.20
2019-04-07T02:49:01.872Z,94423.20
2019-04-07T02:51:27.238Z,94424.53
2019-04-07T02:53:53.245Z,94414.29
2019-04-07T02:56:19.271Z,94416.55
2019-04-07T02:58:45.282Z,94419.62
2019-04-07T03:01:11.540Z,94419.20
2019-04-07T03:03:37.307Z,94410.80
2019-04-07T03:06:03.610Z,94411.72
2019-04-07T03:08:30.089Z,94412.55
2019-04-07T03:10:55.487Z,94411.20
2019-04-07T03:13:21.343Z,94413.46
2019-04-07T03:15:48.308Z,94408.13
2019-04-07T03:18:14.215Z,94409.97
2019-04-07T03:20:39.365Z,94415.72
2019-04-07T03:23:05.411Z,94416.13
2019-04-07T03:25:32.364Z,94414.92
2019-04-07T03:27:57.446Z,94414.38
2019-04-07T03:30:25.906Z,94413.46
2019-04-07T03:32:53.252Z,94416.63
2019-04-07T03:35:18.217Z,94412.35
2019-04-07T03:37:44.800Z,94411.84
2019-04-07T03:40:08.308Z,94417.97
2019-04-07T03:42:34.334Z,94414.92
2019-04-07T03:44:59.543Z,94414.92
2019-04-07T03:47:25.946Z,94413.17
2019-04-07T03:49:51.557Z,94413.97
2019-04-07T03:52:17.582Z,94414.38
2019-04-07T03:54:43.571Z,94417.05
2019-04-07T03:57:09.632Z,94414.92
2019-04-07T03:59:36.407Z,94411.30
2019-04-07T04:02:01.739Z,94422.50
2019-04-07T04:04:28.434Z,94418.51
2019-04-07T04:06:54.694Z,94412.26
2019-04-07T04:09:19.766Z,94410.92
2019-04-07T04:11:45.751Z,94413.17
2019-04-07T04:14:11.848Z,94412.26
2019-04-07T04:16:37.868Z,94413.17
2019-04-07T04:19:05.015Z,94408.64
2019-04-07T04:21:30.751Z,94405.18
2019-04-07T04:23:55.897Z,94401.98
2019-04-07T04:26:21.923Z,94405.98
2019-04-07T04:28:48.751Z,94407.72
2019-04-07T04:31:14.115Z,94408.13
2019-04-07T04:33:40.600Z,94407.08
2019-04-07T04:36:05.975Z,94405.66
2019-04-07T04:38:31.995Z,94406.58
2019-04-07T04:40:58.143Z,94410.48
2019-04-07T04:43:24.006Z,94411.81
2019-04-07T04:45:50.516Z,94408.23
2019-04-07T04:48:16.041Z,94412.61
2019-04-07T04:50:42.117Z,94413.14
2019-04-07T04:53:09.269Z,94416.51
2019-04-07T04:55:34.993Z,94417.43
2019-04-07T04:58:00.254Z,94420.80
2019-04-07T05:00:26.654Z,94422.13
2019-04-07T05:02:52.504Z,94419.05
2019-04-07T05:05:18.255Z,94420.38
2019-04-07T05:07:55.213Z,94421.62
2019-04-07T05:10:10.324Z,94421.11
2019-04-07T05:12:36.777Z,94426.31
2019-04-07T05:15:02.273Z,94423.23
2019-04-07T05:17:28.807Z,94428.06
2019-04-07T05:19:54.942Z,94432.88
2019-04-07T05:22:20.372Z,94428.06
2019-04-07T05:24:46.691Z,94436.88
2019-04-07T05:27:12.779Z,94437.27
2019-04-07T05:29:39.029Z,94437.27
2019-04-07T05:32:04.585Z,94433.67
2019-04-07T05:34:31.104Z,94430.09
2019-04-07T05:36:56.437Z,94425.27
2019-04-07T05:39:22.984Z,94429.68
2019-04-07T05:41:49.028Z,94426.60
2019-04-07T05:44:14.515Z,94431.93
2019-04-07T05:46:42.572Z,94427.94
2019-04-07T05:49:06.658Z,94432.88
2019-04-07T05:51:32.759Z,94438.59
2019-04-07T05:53:59.270Z,94436.34
2019-04-07T05:56:28.127Z,94432.88
2019-04-07T05:58:50.622Z,94438.22
2019-04-07T06:01:22.539Z,94435.55
2019-04-07T06:03:43.629Z,94439.64
2019-04-07T06:06:09.345Z,94440.88
2019-04-07T06:08:38.704Z,94444.34
2019-04-07T06:11:02.322Z,94440.34
2019-04-07T06:13:26.706Z,94433.27
2019-04-07T06:15:53.234Z,94433.67
2019-04-07T06:18:18.722Z,94442.09
2019-04-07T06:20:45.799Z,94437.67
2019-04-07T06:23:10.741Z,94445.98
2019-04-07T06:25:40.859Z,94439.70
2019-04-07T06:28:03.345Z,94441.77
2019-04-07T06:30:31.189Z,94440.82
2019-04-07T06:32:55.427Z,94442.56
2019-04-07T06:35:20.889Z,94445.13
2019-04-07T06:37:47.679Z,94445.42
2019-04-07T06:40:13.940Z,94445.70
2019-04-07T06:42:40.474Z,94446.53
2019-04-07T06:45:06.255Z,94450.12
2019-04-07T06:47:32.904Z,94448.15
2019-04-07T06:49:57.533Z,94449.10
2019-04-07T06:52:23.877Z,94454.09
2019-04-07T06:54:53.476Z,94449.67
2019-04-07T06:57:15.598Z,94448.34
2019-04-07T06:59:45.530Z,94446.91
2019-04-07T07:02:07.626Z,94441.58
2019-04-07T07:04:33.748Z,94443.70
2019-04-07T07:07:00.551Z,94440.44
2019-04-07T07:09:26.554Z,94439.48
2019-04-07T07:11:51.756Z,94445.55
2019-04-07T07:14:31.409Z,94447.39
2019-04-07T07:16:45.927Z,94453.23
2019-04-07T07:19:10.619Z,94450.06
2019-04-07T07:21:38.722Z,94450.06
2019-04-07T07:24:02.359Z,94453.64
2019-04-07T07:26:28.430Z,94449.64
2019-04-07T07:28:54.307Z,94450.88
2019-04-07T07:31:22.839Z,94448.59
2019-04-07T07:33:46.094Z,94451.67
2019-04-07T07:36:12.387Z,94451.16
2019-04-07T07:38:38.480Z,94456.09
2019-04-07T07:41:04.762Z,94456.59
2019-04-07T07:43:30.240Z,94452.50
2019-04-07T07:45:56.740Z,94446.88
2019-04-07T07:48:26.206Z,94447.58
2019-04-07T07:50:48.745Z,94446.75
2019-04-07T07:53:14.218Z,94439.58
2019-04-07T07:55:40.260Z,94448.91
2019-04-07T07:58:06.242Z,94452.69
2019-04-07T08:00:35.250Z,94455.36
2019-04-07T08:02:58.292Z,94455.13
2019-04-07T08:05:24.821Z,94457.80
2019-04-07T08:07:51.050Z,94454.63
2019-04-07T08:10:16.954Z,94455.96
2019-04-07T08:12:42.322Z,94450.41
2019-04-07T08:15:09.136Z,94451.20
2019-04-07T08:17:34.379Z,94451.52
2019-04-07T08:20:01.035Z,94451.67
2019-04-07T08:22:32.490Z,94448.91
2019-04-07T08:24:53.418Z,94443.45
2019-04-07T08:27:19.388Z,94440.50
2019-04-07T08:29:45.208Z,94440.62
2019-04-07T08:32:11.098Z,94443.39
2019-04-07T08:34:37.197Z,94437.13
2019-04-07T08:37:03.732Z,94435.20
2019-04-07T08:39:32.326Z,94440.44
2019-04-07T08:41:54.919Z,94437.77
2019-04-07T08:44:21.558Z,94437.36
2019-04-07T08:46:46.973Z,94438.28
2019-04-07T08:49:12.991Z,94430.28
2019-04-07T08:51:39.431Z,94435.20
2019-04-07T08:54:05.877Z,94428.13
2019-04-07T08:56:31.050Z,94422.78
2019-04-07T08:58:57.039Z,94420.53
2019-04-07T09:01:23.778Z,94426.28
2019-04-07T09:03:49.677Z,94416.95
2019-04-07T09:06:15.148Z,94411.20
2019-04-07T09:08:41.152Z,94402.28
2019-04-07T09:11:07.827Z,94404.44
2019-04-07T09:13:34.194Z,94399.39
2019-04-07T09:15:59.975Z,94398.47
2019-04-07T09:18:25.162Z,94404.41
2019-04-07T09:20:51.820Z,94401.89
2019-04-07T09:23:17.551Z,94394.72
2019-04-07T09:25:43.713Z,94391.77
2019-04-07T09:28:09.998Z,94387.64
2019-04-07T09:30:35.600Z,94389.38
2019-04-07T09:33:01.377Z,94384.05
2019-04-07T09:35:27.230Z,94384.88
2019-04-07T09:37:54.153Z,94386.30
2019-04-07T09:40:20.089Z,94388.46
2019-04-07T09:42:45.971Z,94377.66
2019-04-07T09:45:12.700Z,94377.34
2019-04-07T09:47:38.022Z,94373.95
2019-04-07T09:50:04.543Z,94373.81
2019-04-07T09:52:30.514Z,94373.72
2019-04-07T09:54:55.812Z,94364.38
2019-04-07T09:57:21.826Z,94365.72
2019-04-07T09:59:50.856Z,94362.09
2019-04-07T10:02:14.565Z,94361.59
2019-04-07T10:04:42.472Z,94356.16
2019-04-07T10:07:09.216Z,94359.74
2019-04-07T10:09:32.220Z,94357.08
2019-04-07T10:11:57.975Z,94350.41
2019-04-07T10:14:23.986Z,94344.16
2019-04-07T10:16:50.686Z,94344.16
2019-04-07T10:19:16.014Z,94343.52
2019-04-07T10:21:42.872Z,94344.95
2019-04-07T10:24:08.154Z,94339.23
2019-04-07T10:26:34.172Z,94339.61
2019-04-07T10:29:00.601Z,94335.52
2019-04-07T10:31:26.194Z,94337.67
2019-04-07T10:33:52.635Z,94328.84
2019-04-07T10:36:18.223Z,94326.88
2019-04-07T10:38:45.033Z,94326.88
2019-04-07T10:41:10.725Z,94331.29
2019-04-07T10:43:36.417Z,94325.83
2019-04-07T10:46:02.409Z,94318.23
2019-04-07T10:48:28.648Z,94324.39
2019-04-07T10:50:54.399Z,94324.80
2019-04-07T10:53:20.657Z,94314.00
2019-04-07T10:55:46.598Z,94317.22
2019-04-07T10:58:12.479Z,94322.83
2019-04-07T11:00:41.346Z,94315.66
2019-04-07T11:03:04.886Z,94315.52
2019-04-07T11:05:30.574Z,94314.09
2019-04-07T11:07:56.986Z,94316.22
2019-04-07T11:10:32.881Z,94314.09
2019-04-07T11:12:48.677Z,94311.81
2019-04-07T11:15:14.629Z,94305.96
2019-04-07T11:17:40.813Z,94309.55
2019-04-07T11:20:06.657Z,94306.66
2019-04-07T11:22:33.785Z,94303.58
2019-04-07T11:24:59.178Z,94302.66
2019-04-07T11:27:25.446Z,94303.70
2019-04-07T11:29:50.749Z,94301.95
2019-04-07T11:32:17.569Z,94290.88
2019-04-07T11:34:42.757Z,94292.34
2019-04-07T11:37:10.254Z,94295.80
2019-04-07T11:39:37.308Z,94284.84
2019-04-07T11:42:04.782Z,94287.52
2019-04-07T11:44:29.321Z,94287.64
2019-04-07T11:46:55.067Z,94280.56
2019-04-07T11:49:21.417Z,94278.00
2019-04-07T11:51:47.834Z,94280.66
2019-04-07T11:54:13.175Z,94271.88
2019-04-07T11:56:40.024Z,94276.25
2019-04-07T11:59:06.885Z,94269.20
2019-04-07T12:01:31.299Z,94268.80
2019-04-07T12:03:57.297Z,94275.46
2019-04-07T12:06:25.188Z,94267.05
2019-04-07T12:08:50.027Z,94268.89
2019-04-07T12:11:15.673Z,94271.55
2019-04-07T12:13:44.096Z,94271.14
2019-04-07T12:16:08.044Z,94265.02
2019-04-07T12:18:34.089Z,94264.61
2019-04-07T12:21:02.337Z,94258.86
2019-04-07T12:23:27.469Z,94260.20
2019-04-07T12:25:51.554Z,94257.25
2019-04-07T12:28:19.096Z,94254.04
2019-04-07T12:30:43.749Z,94251.50
2019-04-07T12:33:09.910Z,94244.42
2019-04-07T12:35:36.548Z,94241.47
2019-04-07T12:38:01.835Z,94247.22
2019-04-07T12:40:27.984Z,94240.14
2019-04-07T12:42:54.579Z,94242.80
2019-04-07T12:45:20.048Z,94241.47
2019-04-07T12:47:46.066Z,94230.39
2019-04-07T12:50:14.709Z,94235.64
2019-04-07T12:52:38.249Z,94237.16
2019-04-07T12:55:04.835Z,94231.41
2019-04-07T12:57:30.798Z,94234.62
2019-04-07T12:59:57.060Z,94232.88
2019-04-07T13:02:22.901Z,94228.05
2019-04-07T13:04:48.663Z,94229.39
2019-04-07T13:07:18.458Z,94229.52
2019-04-07T13:09:41.855Z,94231.27
2019-04-07T13:12:07.608Z,94226.31
2019-04-07T13:14:35.273Z,94226.84
2019-04-07T13:17:01.234Z,94226.31
2019-04-07T13:19:25.316Z,94225.93
2019-04-07T13:21:53.192Z,94226.95
2019-04-07T13:24:28.846Z,94224.69
2019-04-07T13:26:43.501Z,94219.08
2019-04-07T13:29:09.638Z,94221.33
2019-04-07T13:31:35.206Z,94228.41
2019-04-07T13:34:02.781Z,94230.25
2019-04-07T13:36:28.012Z,94224.64
2019-04-07T13:38:53.416Z,94225.56
2019-04-07T13:41:20.287Z,94226.38
2019-04-07T13:43:45.640Z,94229.44
2019-04-07T13:46:18.804Z,94226.07
2019-04-07T13:48:37.946Z,94228.33
2019-04-07T13:51:04.263Z,94223.41
2019-04-07T13:53:31.033Z,94224.33
2019-04-07T13:55:55.900Z,94229.28
2019-04-07T13:58:21.950Z,94230.61
2019-04-07T14:00:48.365Z,94225.79
2019-04-07T14:03:14.506Z,94223.64
2019-04-07T14:05:40.982Z,94227.22
2019-04-07T14:08:07.000Z,94224.45
2019-04-07T14:10:35.608Z,94223.64
2019-04-07T14:12:58.653Z,94219.22
2019-04-07T14:15:24.792Z,94215.77
2019-04-07T14:17:50.734Z,94209.09
2019-04-07T14:20:16.530Z,94216.69
2019-04-07T14:22:42.580Z,94215.86
2019-04-07T14:25:09.146Z,94218.53
2019-04-07T14:27:35.104Z,94212.41
2019-04-07T14:30:01.387Z,94209.33
2019-04-07T14:32:27.346Z,94212.78
2019-04-07T14:34:53.007Z,94207.86
2019-04-07T14:37:20.258Z,94207.07
2019-04-07T14:39:45.523Z,94208.41
2019-04-07T14:42:11.962Z,94205.84
2019-04-07T14:44:36.997Z,94209.84
2019-04-07T14:47:03.250Z,94203.68
2019-04-07T14:49:29.795Z,94205.02
2019-04-07T14:51:55.919Z,94212.63
2019-04-07T14:54:21.206Z,94211.81
2019-04-07T14:56:47.724Z,94209.24
2019-04-07T14:59:13.270Z,94214.06
2019-04-07T15:01:39.660Z,94207.91
2019-04-07T15:04:06.358Z,94218.06
2019-04-07T15:06:33.660Z,94212.86
2019-04-07T15:09:01.197Z,94212.96
2019-04-07T15:11:23.823Z,94209.88
2019-04-07T15:13:50.565Z,94211.22
2019-04-07T15:16:16.554Z,94212.55
2019-04-07T15:18:42.187Z,94216.14
2019-04-07T15:21:08.029Z,94215.76
2019-04-07T15:23:34.113Z,94208.78
2019-04-07T15:26:00.301Z,94214.52
2019-04-07T15:28:29.620Z,94212.91
2019-04-07T15:30:52.359Z,94210.23
2019-04-07T15:33:18.389Z,94215.44
2019-04-07T15:35:47.236Z,94211.76
2019-04-07T15:38:10.944Z,94212.14
2019-04-07T15:40:36.591Z,94214.58
2019-04-07T15:43:04.757Z,94213.42
2019-04-07T15:45:28.731Z,94212.17
2019-04-07T15:47:55.220Z,94217.39
2019-04-07T15:50:21.421Z,94221.92
2019-04-07T15:52:47.344Z,94217.61
2019-04-07T15:55:13.490Z,94223.87
2019-04-07T15:57:38.863Z,94221.61
2019-04-07T16:00:05.498Z,94224.19
2019-04-07T16:02:30.946Z,94224.78
2019-04-07T16:05:00.440Z,94220.19
2019-04-07T16:07:23.098Z,94218.81
2019-04-07T16:09:53.857Z,94220.92
2019-04-07T16:12:15.124Z,94218.10
2019-04-07T16:14:44.927Z,94221.64
2019-04-07T16:17:09.534Z,94215.44
2019-04-07T16:19:38.210Z,94220.62
2019-04-07T16:22:00.027Z,94219.20
2019-04-07T16:24:25.787Z,94219.70
2019-04-07T16:26:51.540Z,94219.84
2019-04-07T16:29:19.022Z,94229.42
2019-04-07T16:31:43.659Z,94225.55
2019-04-07T16:34:10.427Z,94224.45
2019-04-07T16:36:36.588Z,94228.17
2019-04-07T16:39:02.310Z,94223.85
2019-04-07T16:41:29.834Z,94227.86
2019-04-07T16:43:58.788Z,94233.33
2019-04-07T16:46:24.697Z,94237.97
2019-04-07T16:48:49.681Z,94238.58
2019-04-07T16:51:15.892Z,94233.47
2019-04-07T16:53:42.987Z,94236.78
2019-04-07T16:56:07.787Z,94235.45
2019-04-07T16:58:37.204Z,94238.94
2019-04-07T17:01:00.057Z,94236.78
2019-04-07T17:03:27.446Z,94233.47
2019-04-07T17:05:55.683Z,94244.27
2019-04-07T17:08:21.076Z,94246.13
2019-04-07T17:10:44.176Z,94236.50
2019-04-07T17:13:19.834Z,94250.53
2019-04-07T17:15:39.573Z,94250.25
2019-04-07T17:18:02.339Z,94252.09
2019-04-07T17:20:33.291Z,94253.43
2019-04-07T17:22:54.355Z,94251.41
2019-04-07T17:25:20.623Z,94244.45
2019-04-07T17:27:46.599Z,94258.59
2019-04-07T17:30:12.524Z,94253.37
2019-04-07T17:32:39.185Z,94254.41
2019-04-07T17:35:04.565Z,94256.46
2019-04-07T17:37:30.915Z,94262.48
2019-04-07T17:39:56.966Z,94261.25
2019-04-07T17:42:26.226Z,94260.23
2019-04-07T17:44:50.462Z,94266.17
2019-04-07T17:47:15.701Z,94272.84
2019-04-07T17:49:40.943Z,94275.42
2019-04-07T17:52:09.937Z,94274.91
2019-04-07T17:54:32.996Z,94281.03
2019-04-07T17:57:01.214Z,94284.24
2019-04-07T17:59:26.130Z,94286.09
2019-04-07T18:01:54.404Z,94289.96
2019-04-07T18:04:17.362Z,94292.02
2019-04-07T18:06:43.964Z,94295.48
2019-04-07T18:09:12.346Z,94294.46
2019-04-07T18:11:35.370Z,94295.89
2019-04-07T18:14:02.111Z,94295.30
2019-04-07T18:16:27.446Z,94293.17
2019-04-07T18:18:56.222Z,94292.94
2019-04-07T18:21:19.551Z,94294.38
2019-04-07T18:23:45.679Z,94296.77
2019-04-07T18:26:14.423Z,94299.94
2019-04-07T18:28:37.828Z,94303.25
2019-04-07T18:31:05.352Z,94297.31
2019-04-07T18:33:29.949Z,94301.83
2019-04-07T18:35:56.129Z,94298.83
2019-04-07T18:38:22.846Z,94296.86
2019-04-07T18:40:48.342Z,94299.53
2019-04-07T18:43:16.622Z,94298.92
2019-04-07T18:45:44.057Z,94293.64
2019-04-07T18:48:06.444Z,94296.30
2019-04-07T18:50:32.783Z,94296.81
2019-04-07T18:53:00.117Z,94297.64
2019-04-07T18:55:27.056Z,94300.81
2019-04-07T18:57:50.865Z,94296.63
2019-04-07T19:00:16.935Z,94291.70
2019-04-07T19:02:46.067Z,94289.03
2019-04-07T19:05:08.781Z,94287.42
2019-04-07T19:07:35.767Z,94292.25
2019-04-07T19:10:08.036Z,94294.32
2019-04-07T19:12:28.714Z,94295.94
2019-04-07T19:15:02.478Z,94294.73
2019-04-07T19:17:21.729Z,94294.73
2019-04-07T19:19:46.190Z,94290.03
2019-04-07T19:22:11.290Z,94295.38
2019-04-07T19:24:37.862Z,94289.73
2019-04-07T19:27:12.699Z,94292.70
2019-04-07T19:29:29.668Z,94296.80
2019-04-07T19:31:55.591Z,94297.31
2019-04-07T19:34:22.516Z,94295.67
2019-04-07T19:36:48.222Z,94291.16
2019-04-07T19:39:14.679Z,94290.84
2019-04-07T19:41:40.488Z,94289.09
2019-04-07T19:44:06.031Z,94285.09
2019-04-07T19:46:31.752Z,94286.97
2019-04-07T19:48:57.754Z,94285.73
2019-04-07T19:51:26.680Z,94279.48
2019-04-07T19:53:49.811Z,94276.94
2019-04-07T19:56:15.824Z,94271.19
2019-04-07T19:58:42.635Z,94280.12
2019-04-07T20:01:08.419Z,94277.45
2019-04-07T20:03:36.983Z,94277.96
2019-04-07T20:06:00.673Z,94278.89
2019-04-07T20:08:26.860Z,94278.38
2019-04-07T20:10:53.242Z,94278.89
2019-04-07T20:13:17.993Z,94272.76
2019-04-07T20:15:44.975Z,94274.50
2019-04-07T20:18:10.495Z,94271.02
2019-04-07T20:20:38.497Z,94271.42
2019-04-07T20:23:04.425Z,94262.73
2019-04-07T20:25:30.072Z,94264.85
2019-04-07T20:27:57.276Z,94266.59
2019-04-07T20:30:22.226Z,94259.93
2019-04-07T20:32:48.243Z,94257.39
2019-04-07T20:35:15.473Z,94260.44
2019-04-07T20:37:41.178Z,94252.05
2019-04-07T20:40:06.654Z,94259.23
2019-04-07T20:42:32.451Z,94254.31
2019-04-07T20:45:04.242Z,94254.41
2019-04-07T20:47:26.350Z,94250.82
2019-04-07T20:49:51.546Z,94256.16
2019-04-07T20:52:17.783Z,94254.00
2019-04-07T20:54:42.502Z,94254.00
2019-04-07T20:57:09.231Z,94258.00
2019-04-07T20:59:45.695Z,94259.88
2019-04-07T21:02:06.018Z,94260.39
2019-04-07T21:04:26.597Z,94248.38
2019-04-07T21:06:52.552Z,94253.44
2019-04-07T21:09:19.432Z,94257.84
2019-04-07T21:11:47.305Z,94247.79
2019-04-07T21:14:11.351Z,94250.08
2019-04-07T21:16:36.866Z,94253.66
2019-04-07T21:19:06.784Z,94250.17
2019-04-07T21:21:29.187Z,94253.77
2019-04-07T21:23:55.267Z,94250.81
2019-04-07T21:26:20.980Z,94244.15
2019-04-07T21:28:47.183Z,94251.73
2019-04-07T21:31:16.057Z,94245.20
2019-04-07T21:33:38.934Z,94245.58
2019-04-07T21:36:07.740Z,94246.53
2019-04-07T21:38:31.269Z,94244.89
2019-04-07T21:40:57.761Z,94238.63
2019-04-07T21:43:25.840Z,94240.09
2019-04-07T21:45:50.807Z,94238.22
2019-04-07T21:48:15.775Z,94232.09
2019-04-07T21:50:42.487Z,94229.02
2019-04-07T21:53:07.038Z,94228.60
2019-04-07T21:55:33.039Z,94226.45
2019-04-07T21:57:59.798Z,94222.98
2019-04-07T22:00:27.050Z,94227.91
2019-04-07T22:02:51.046Z,94228.83
2019-04-07T22:05:17.789Z,94224.83
2019-04-07T22:07:43.994Z,94220.92
2019-04-07T22:10:09.446Z,94216.92
2019-04-07T22:12:35.927Z,94215.59
2019-04-07T22:15:01.153Z,94216.64
2019-04-07T22:17:27.690Z,94213.47
2019-04-07T22:19:53.177Z,94210.48
2019-04-07T22:22:19.213Z,94211.95
2019-04-07T22:24:45.202Z,94215.41
2019-04-07T22:27:11.312Z,94212.36
2019-04-07T22:29:37.501Z,94206.62
2019-04-07T22:32:03.399Z,94210.20
2019-04-07T22:34:32.219Z,94213.80
2019-04-07T22:36:55.837Z,94213.39
2019-04-07T22:39:21.299Z,94209.52
2019-04-07T22:41:48.281Z,94215.27
2019-04-07T22:44:13.404Z,94214.85
2019-04-07T22:46:39.593Z,94212.69
2019-04-07T22:49:05.305Z,94210.84
2019-04-07T22:51:31.320Z,94210.02
2019-04-07T22:53:57.746Z,94208.28
2019-04-07T22:56:24.364Z,94205.74
2019-04-07T22:58:49.346Z,94197.20
2019-04-07T23:01:15.342Z,94197.74
2019-04-07T23:03:41.341Z,94194.39
2019-04-07T23:06:07.513Z,94199.17
2019-04-07T23:08:33.342Z,94199.30
2019-04-07T23:11:00.095Z,94191.30
2019-04-07T23:13:25.840Z,94193.97
2019-04-07T23:15:52.303Z,94189.15
2019-04-07T23:18:17.904Z,94186.07
2019-04-07T23:20:43.919Z,94183.95
2019-04-07T23:23:09.420Z,94189.28
2019-04-07T23:25:36.429Z,94184.05
2019-04-07T23:28:01.455Z,94180.45
2019-04-07T23:30:27.824Z,94182.72
2019-04-07T23:32:53.546Z,94180.97
2019-04-07T23:35:20.100Z,94176.27
2019-04-07T23:37:45.491Z,94174.02
2019-04-07T23:40:11.514Z,94168.17
2019-04-07T23:42:38.269Z,94167.45
2019-04-07T23:45:03.530Z,94160.41
2019-04-07T23:47:29.528Z,94162.13
2019-04-07T23:49:55.598Z,94161.33
2019-04-07T23:52:21.577Z,94158.66
2019-04-07T23:54:48.275Z,94161.74
2019-04-07T23:57:13.600Z,94152.50
2019-04-07T23:59:40.097Z,94150.25
